Guage, Kentucky
Current Conditions -  °F | °C
As of 12:53 PM on Friday 24 Oct 2014 (Local Time) from KJKL Reporting Station
Clear Clear  
Wind Chill: 57°   Ceiling: Unl
Heat Index: 57°   Visibility: 10mi
Dew Point: 43°   Wind: 3mph
Humidity: 59%   Direction: 310°NW
Pressure: 30.12"   Gusts: NA
Location:  37.532°N, 83.3068°W
Report Text: KJKL 241653Z AUTO 31003KT 10SM CLR 14/06 A3012 RMK AO2 SLP196 T01390061
Loading
Personal Weather Stations






























Interactive Weather Map
Tropical Storm Tracking
New forecast layout! Learn more

10-Day Weather Forecast

Advertisements
Track Severe Weather on mobile